Time;durP1;ratioP1;P1;durP2;ratioP2;P2;SDS_P1;SDS_P2;PMS_P1;PMS_P2;Temp;Humidity;BMP_temperature;BMP_pressure;BME280_temperature;BME280_humidity;BME280_pressure;Samples;Min_cycle;Max_cycle;Signal;HPM_P1;HPM_P2
2023/09/06 00:01:11;;;;;;;13.57;9.35;;;15.70;99.90;;;;;;5030886;28;20080;-75
2023/09/06 00:03:39;;;;;;;11.15;9.15;;;15.70;99.90;;;;;;5034408;28;20041;-76
2023/09/06 00:06:08;;;;;;;10.90;9.00;;;15.60;99.90;;;;;;5032204;28;20042;-77
2023/09/06 00:08:35;;;;;;;10.73;9.50;;;15.70;99.90;;;;;;5033168;28;20101;-76
2023/09/06 00:11:05;;;;;;;11.20;9.02;;;15.80;99.90;;;;;;5035349;28;20065;-75
2023/09/06 00:13:35;;;;;;;12.88;9.85;;;15.70;99.90;;;;;;5053609;28;20470;-76
2023/09/06 00:16:03;;;;;;;11.55;10.15;;;15.60;99.90;;;;;;5033706;28;20102;-76
2023/09/06 00:18:31;;;;;;;11.65;10.00;;;15.50;99.90;;;;;;5032138;28;20037;-77
2023/09/06 00:20:59;;;;;;;12.48;10.45;;;15.40;99.90;;;;;;5041476;28;20064;-77
2023/09/06 00:23:27;;;;;;;10.20;9.07;;;15.40;99.90;;;;;;5030522;28;20044;-76
2023/09/06 00:25:55;;;;;;;11.98;10.00;;;15.40;99.90;;;;;;5031370;28;20273;-76
2023/09/06 00:28:23;;;;;;;13.25;9.63;;;15.40;99.90;;;;;;5030588;28;20049;-78
2023/09/06 00:30:57;;;;;;;10.38;9.05;;;15.40;99.90;;;;;;5036735;28;20045;-76
2023/09/06 00:33:29;;;;;;;12.77;9.20;;;15.50;99.90;;;;;;5047606;28;20117;-76
2023/09/06 00:35:58;;;;;;;11.95;9.60;;;15.50;99.90;;;;;;5033954;28;20057;-76
2023/09/06 00:38:25;;;;;;;12.25;9.68;;;15.40;99.90;;;;;;5034063;28;20041;-77
2023/09/06 00:40:53;;;;;;;13.15;10.32;;;15.20;99.90;;;;;;5039155;28;20052;-74
2023/09/06 00:43:20;;;;;;;12.73;10.15;;;15.10;99.90;;;;;;5033503;28;20057;-76
2023/09/06 00:45:50;;;;;;;11.65;10.00;;;15.00;99.90;;;;;;5031696;28;20048;-76
2023/09/06 00:48:23;;;;;;;13.13;10.57;;;14.90;99.90;;;;;;5032459;28;20042;-77
2023/09/06 00:50:52;;;;;;;17.55;10.95;;;15.00;99.90;;;;;;5031638;28;20540;-77
2023/09/06 00:53:21;;;;;;;12.45;9.50;;;14.90;99.90;;;;;;5031574;28;20048;-77
2023/09/06 00:55:49;;;;;;;15.10;9.75;;;14.80;99.90;;;;;;5031907;28;20042;-77
2023/09/06 00:58:19;;;;;;;11.10;9.93;;;14.80;99.90;;;;;;5030770;28;20049;-76
2023/09/06 01:00:48;;;;;;;11.05;9.50;;;14.80;99.90;;;;;;5032432;28;20030;-77
2023/09/06 01:03:16;;;;;;;10.32;9.25;;;14.90;99.90;;;;;;5029351;28;20120;-75
2023/09/06 01:05:49;;;;;;;13.55;9.68;;;14.90;99.90;;;;;;5028307;28;20501;-75
2023/09/06 01:08:20;;;;;;;10.73;9.35;;;14.90;99.90;;;;;;5029990;28;20060;-76
2023/09/06 01:10:50;;;;;;;10.20;8.93;;;14.90;99.90;;;;;;5029962;28;20461;-76
2023/09/06 01:13:18;;;;;;;11.10;9.45;;;15.00;99.90;;;;;;5043362;28;20065;-76
2023/09/06 01:15:47;;;;;;;13.05;10.00;;;14.90;99.90;;;;;;5029640;28;20072;-76
2023/09/06 01:18:16;;;;;;;11.73;9.75;;;14.90;99.90;;;;;;5029518;28;20034;-76
2023/09/06 01:20:52;;;;;;;12.40;10.18;;;14.90;99.90;;;;;;5029968;28;20444;-75
2023/09/06 01:23:35;;;;;;;17.60;11.35;;;15.00;99.90;;;;;;5028687;28;20038;-77
2023/09/06 01:26:05;;;;;;;12.55;10.48;;;14.90;99.90;;;;;;5027121;28;20045;-76
2023/09/06 01:28:33;;;;;;;12.95;10.73;;;14.90;99.90;;;;;;5029050;28;20128;-76
2023/09/06 01:31:01;;;;;;;12.98;10.77;;;14.80;99.90;;;;;;5030940;28;20417;-76
2023/09/06 01:33:29;;;;;;;12.85;10.57;;;14.80;99.90;;;;;;5030893;28;20042;-76
2023/09/06 01:35:56;;;;;;;11.82;10.57;;;14.80;99.90;;;;;;5031473;28;20049;-77
2023/09/06 01:38:24;;;;;;;12.57;11.07;;;14.60;99.90;;;;;;5028533;28;20046;-76
2023/09/06 01:40:53;;;;;;;11.30;10.13;;;14.60;99.90;;;;;;5030697;28;20049;-76
2023/09/06 01:43:21;;;;;;;13.13;10.40;;;14.70;99.90;;;;;;5029350;28;20053;-77
2023/09/06 01:45:51;;;;;;;16.02;10.43;;;14.60;99.90;;;;;;5030807;28;20042;-77
2023/09/06 01:48:19;;;;;;;11.63;10.43;;;14.60;99.90;;;;;;5030197;28;20072;-76
2023/09/06 01:50:47;;;;;;;13.02;10.73;;;14.60;99.90;;;;;;5028043;28;20049;-77
2023/09/06 01:53:15;;;;;;;11.98;10.70;;;14.60;99.90;;;;;;5032518;28;20056;-77
2023/09/06 01:55:43;;;;;;;11.40;10.30;;;14.50;99.90;;;;;;5028695;28;20652;-77
2023/09/06 01:58:12;;;;;;;12.52;10.38;;;14.60;99.90;;;;;;5015823;28;20043;-77
2023/09/06 02:00:40;;;;;;;12.55;10.30;;;14.50;99.90;;;;;;5019580;28;20045;-76
2023/09/06 02:03:09;;;;;;;12.32;11.02;;;14.50;99.90;;;;;;5037931;28;20056;-77
2023/09/06 02:05:37;;;;;;;10.85;9.70;;;14.50;99.90;;;;;;5031466;28;20045;-77
2023/09/06 02:08:05;;;;;;;10.95;9.85;;;14.50;99.90;;;;;;5031249;28;20128;-76
2023/09/06 02:10:32;;;;;;;14.77;11.43;;;14.30;99.90;;;;;;5036717;28;20061;-77
2023/09/06 02:13:01;;;;;;;15.52;10.63;;;14.20;99.90;;;;;;5045449;28;20041;-77
2023/09/06 02:15:30;;;;;;;11.18;9.95;;;14.10;99.90;;;;;;5052094;28;20199;-75
2023/09/06 02:17:58;;;;;;;11.38;10.18;;;14.00;99.90;;;;;;5042081;28;20071;-77
2023/09/06 02:20:27;;;;;;;11.60;9.80;;;14.10;99.90;;;;;;5040071;28;20049;-75
2023/09/06 02:22:56;;;;;;;10.52;9.52;;;14.10;99.90;;;;;;5044968;28;20049;-75
2023/09/06 02:25:26;;;;;;;11.07;9.23;;;14.20;99.90;;;;;;5036725;28;20046;-75
2023/09/06 02:27:54;;;;;;;10.95;9.65;;;14.20;99.90;;;;;;5028786;28;20044;-76
2023/09/06 02:30:22;;;;;;;10.50;9.40;;;14.10;99.90;;;;;;5052745;28;20049;-80
2023/09/06 02:32:51;;;;;;;11.15;10.05;;;14.10;99.90;;;;;;5029700;28;20049;-77
2023/09/06 02:35:44;;;;;;;11.70;9.60;;;14.10;99.90;;;;;;5049178;28;20040;-76
2023/09/06 02:38:12;;;;;;;11.23;9.57;;;14.20;99.90;;;;;;5043090;28;20678;-75
2023/09/06 02:40:41;;;;;;;9.93;8.93;;;14.20;99.90;;;;;;5054017;28;20058;-76
2023/09/06 02:43:10;;;;;;;11.10;9.80;;;14.20;99.90;;;;;;5037237;28;20034;-75
2023/09/06 02:45:38;;;;;;;11.52;9.70;;;14.10;99.90;;;;;;5047874;28;20486;-77
2023/09/06 02:48:12;;;;;;;11.63;9.57;;;14.10;99.90;;;;;;5021091;28;20034;-75
2023/09/06 02:50:40;;;;;;;13.25;10.18;;;14.10;99.90;;;;;;5030709;28;20045;-76
2023/09/06 02:53:18;;;;;;;13.93;9.98;;;14.00;99.90;;;;;;5016591;28;20077;-77
2023/09/06 02:55:47;;;;;;;12.35;9.40;;;14.00;99.90;;;;;;5021443;28;20057;-77
2023/09/06 02:58:16;;;;;;;12.52;9.88;;;14.00;99.90;;;;;;5038681;28;20060;-76
2023/09/06 03:00:48;;;;;;;12.38;9.43;;;14.00;99.90;;;;;;5042898;28;20574;-77
2023/09/06 03:03:17;;;;;;;12.13;9.75;;;14.00;99.90;;;;;;5057496;28;20021;-76
2023/09/06 03:05:46;;;;;;;10.75;9.68;;;14.00;99.90;;;;;;5057487;28;20029;-75
2023/09/06 03:08:17;;;;;;;11.48;10.27;;;14.00;99.90;;;;;;5054034;28;20076;-75
2023/09/06 03:10:45;;;;;;;12.30;10.63;;;13.90;99.90;;;;;;5037249;28;20129;-76
2023/09/06 03:13:15;;;;;;;14.68;11.98;;;13.70;99.90;;;;;;5044637;28;20055;-76
2023/09/06 03:15:44;;;;;;;13.02;11.18;;;13.70;99.90;;;;;;5055424;28;20033;-76
2023/09/06 03:18:13;;;;;;;11.15;9.90;;;13.70;99.90;;;;;;5044724;28;20045;-77
2023/09/06 03:20:43;;;;;;;15.60;9.80;;;13.70;99.90;;;;;;5054360;28;20045;-76
2023/09/06 03:23:19;;;;;;;13.20;10.65;;;13.70;99.90;;;;;;5053636;28;20041;-76
2023/09/06 03:25:57;;;;;;;10.95;9.85;;;13.80;99.90;;;;;;5053578;28;20033;-78
2023/09/06 03:28:40;;;;;;;17.23;12.13;;;13.80;99.90;;;;;;5056146;28;20021;-77
2023/09/06 03:31:10;;;;;;;15.45;11.93;;;14.00;99.90;;;;;;5055881;28;20035;-77
2023/09/06 03:33:39;;;;;;;17.63;14.85;;;14.00;99.90;;;;;;5055179;28;20049;-77
2023/09/06 03:36:09;;;;;;;16.13;13.77;;;14.10;99.90;;;;;;5055040;28;20063;-77
2023/09/06 03:38:37;;;;;;;16.13;13.57;;;14.20;99.90;;;;;;5054505;28;20075;-76
2023/09/06 03:41:07;;;;;;;17.27;14.10;;;14.30;99.90;;;;;;5049836;28;20100;-76
2023/09/06 03:43:34;;;;;;;17.75;12.90;;;14.30;99.90;;;;;;5055134;28;20079;-77
2023/09/06 03:46:09;;;;;;;13.30;11.95;;;14.30;99.90;;;;;;5049230;28;20071;-77
2023/09/06 03:48:37;;;;;;;14.80;11.52;;;14.20;99.90;;;;;;5024387;28;20077;-77
2023/09/06 03:51:05;;;;;;;15.05;11.68;;;14.30;99.90;;;;;;5031944;28;20049;-75
2023/09/06 03:53:37;;;;;;;15.02;11.10;;;14.40;99.90;;;;;;5031413;28;20037;-75
2023/09/06 03:56:05;;;;;;;11.68;9.93;;;14.30;99.90;;;;;;5031855;28;20045;-76
2023/09/06 03:58:46;;;;;;;11.38;9.48;;;14.30;99.90;;;;;;5052650;28;20123;-75
2023/09/06 04:01:15;;;;;;;15.35;10.90;;;14.30;99.90;;;;;;5041443;28;20048;-76
2023/09/06 04:03:46;;;;;;;12.15;9.73;;;14.30;99.90;;;;;;5034521;28;20087;-77
2023/09/06 04:06:15;;;;;;;16.85;15.05;;;14.50;99.90;;;;;;5050308;28;20068;-76
2023/09/06 04:08:44;;;;;;;24.17;19.20;;;14.50;99.90;;;;;;5026232;28;20049;-76
2023/09/06 04:11:12;;;;;;;23.92;21.50;;;14.60;99.90;;;;;;5039501;28;20061;-75
2023/09/06 04:13:40;;;;;;;17.35;14.27;;;14.60;99.90;;;;;;5041871;28;20044;-76
2023/09/06 04:16:08;;;;;;;20.42;18.25;;;14.50;99.90;;;;;;5036421;28;20063;-77
2023/09/06 04:18:38;;;;;;;24.48;19.70;;;14.40;99.90;;;;;;5051760;28;20049;-77
2023/09/06 04:21:08;;;;;;;21.85;19.17;;;14.40;99.90;;;;;;5031093;28;20647;-77
2023/09/06 04:23:39;;;;;;;12.90;11.50;;;14.30;99.90;;;;;;5044716;28;20048;-75
2023/09/06 04:26:08;;;;;;;19.00;16.02;;;14.30;99.90;;;;;;5053220;28;20166;-77
2023/09/06 04:28:36;;;;;;;16.83;13.43;;;14.20;99.90;;;;;;5048442;28;20045;-76
2023/09/06 04:31:05;;;;;;;13.93;12.50;;;14.20;99.90;;;;;;5022732;28;20127;-76
2023/09/06 04:33:38;;;;;;;14.05;11.60;;;14.30;99.90;;;;;;5031757;28;20052;-74
2023/09/06 04:36:12;;;;;;;16.63;11.15;;;14.30;99.90;;;;;;5030749;28;20052;-77
2023/09/06 04:38:39;;;;;;;11.90;10.70;;;14.30;99.90;;;;;;5029749;28;20107;-77
2023/09/06 04:41:11;;;;;;;15.93;11.27;;;14.40;99.90;;;;;;5029808;28;20041;-76
2023/09/06 04:43:45;;;;;;;15.80;10.73;;;14.50;99.90;;;;;;5029836;28;20045;-75
2023/09/06 04:46:13;;;;;;;12.13;10.85;;;14.50;99.90;;;;;;5050736;28;20273;-76
2023/09/06 04:48:44;;;;;;;14.18;12.68;;;14.60;99.90;;;;;;5035805;28;20052;-76
2023/09/06 04:51:13;;;;;;;17.60;12.68;;;14.70;99.90;;;;;;5034205;28;20445;-76
2023/09/06 04:53:40;;;;;;;16.77;13.70;;;14.70;99.90;;;;;;5033887;28;20108;-74
2023/09/06 04:56:11;;;;;;;15.02;13.25;;;14.80;99.90;;;;;;5033689;28;20060;-76
2023/09/06 04:58:48;;;;;;;18.73;16.73;;;14.90;99.90;;;;;;5022046;28;20052;-75
2023/09/06 05:01:17;;;;;;;18.40;15.65;;;14.90;99.90;;;;;;5052834;28;20160;-75
2023/09/06 05:03:46;;;;;;;21.35;16.75;;;15.00;99.90;;;;;;5063102;28;20033;-79
2023/09/06 05:06:13;;;;;;;40.15;17.20;;;15.10;99.90;;;;;;5038979;28;20049;-76
2023/09/06 05:08:42;;;;;;;17.98;14.23;;;15.20;99.90;;;;;;5042036;28;20055;-77
2023/09/06 05:11:17;;;;;;;24.35;13.60;;;15.20;99.90;;;;;;5038613;28;20041;-76
2023/09/06 05:13:48;;;;;;;15.50;11.88;;;15.20;99.90;;;;;;5055189;28;20127;-76
2023/09/06 05:16:17;;;;;;;13.05;11.57;;;15.30;99.90;;;;;;5026314;28;20405;-76
2023/09/06 05:18:45;;;;;;;15.30;11.70;;;15.40;99.90;;;;;;5035870;28;20056;-75
2023/09/06 05:21:12;;;;;;;17.63;12.38;;;15.40;99.90;;;;;;5044730;28;20029;-75
2023/09/06 05:23:40;;;;;;;17.88;10.98;;;15.30;99.90;;;;;;5056713;28;20063;-75
2023/09/06 05:26:08;;;;;;;14.07;10.57;;;15.30;99.90;;;;;;5056094;28;20568;-74
2023/09/06 05:28:44;;;;;;;14.68;10.07;;;15.40;99.90;;;;;;5043556;28;20045;-77
2023/09/06 05:31:13;;;;;;;11.77;9.98;;;15.50;99.90;;;;;;5039495;28;20029;-76
2023/09/06 05:33:43;;;;;;;14.13;9.38;;;15.70;99.90;;;;;;5056777;28;20087;-75
2023/09/06 05:36:12;;;;;;;14.63;9.80;;;15.90;99.90;;;;;;5055595;28;20037;-74
2023/09/06 05:38:40;;;;;;;12.07;10.13;;;16.10;99.90;;;;;;5046125;28;20080;-78
2023/09/06 05:41:08;;;;;;;12.25;9.80;;;16.30;99.90;;;;;;5040249;28;20244;-78
2023/09/06 05:43:40;;;;;;;13.65;10.32;;;16.50;99.90;;;;;;5051403;28;20052;-76
2023/09/06 05:46:09;;;;;;;14.20;10.70;;;16.60;99.90;;;;;;5055455;28;20036;-77
2023/09/06 05:48:40;;;;;;;11.93;10.07;;;16.70;99.90;;;;;;5054249;28;20368;-76
2023/09/06 05:51:08;;;;;;;13.68;9.52;;;16.90;99.90;;;;;;5062377;28;20077;-79
2023/09/06 05:53:35;;;;;;;13.20;9.57;;;17.00;99.90;;;;;;5033629;28;20493;-77
2023/09/06 05:56:08;;;;;;;13.05;10.00;;;17.30;99.90;;;;;;5051716;28;20393;-76
2023/09/06 05:58:38;;;;;;;16.38;10.38;;;17.60;99.90;;;;;;5033213;28;20160;-77
2023/09/06 06:01:08;;;;;;;10.95;9.85;;;17.80;99.90;;;;;;5034514;28;20067;-77
2023/09/06 06:03:38;;;;;;;11.73;9.02;;;18.10;99.90;;;;;;5052592;28;20060;-76
2023/09/06 06:06:10;;;;;;;16.08;10.45;;;18.30;99.90;;;;;;5034501;28;20048;-75
2023/09/06 06:08:38;;;;;;;20.95;15.43;;;18.60;99.90;;;;;;5034097;28;20095;-77
2023/09/06 06:11:06;;;;;;;13.55;11.32;;;18.80;99.90;;;;;;5052601;28;20048;-79
2023/09/06 06:13:34;;;;;;;12.55;9.10;;;19.10;99.90;;;;;;5033158;28;20420;-76
2023/09/06 06:16:02;;;;;;;12.93;10.32;;;19.30;99.90;;;;;;5034174;28;20059;-77
2023/09/06 06:18:31;;;;;;;14.85;10.45;;;19.50;99.90;;;;;;5034765;28;20041;-77
2023/09/06 06:21:00;;;;;;;18.73;10.80;;;19.70;99.90;;;;;;5036510;28;20108;-76
2023/09/06 06:23:29;;;;;;;15.55;11.10;;;19.70;99.90;;;;;;5045085;28;20057;-76
2023/09/06 06:25:57;;;;;;;694.67;141.95;;;19.70;99.90;;;;;;5047032;28;20037;-76
2023/09/06 06:28:27;;;;;;;14.10;12.55;;;19.80;99.90;;;;;;5039217;28;20095;-75
2023/09/06 06:30:54;;;;;;;17.98;13.48;;;19.80;99.90;;;;;;5056459;28;20037;-75
2023/09/06 06:33:23;;;;;;;16.95;13.60;;;19.80;99.90;;;;;;5043182;28;20114;-79
2023/09/06 06:35:51;;;;;;;43.55;15.43;;;19.80;99.90;;;;;;5046058;28;20060;-78
2023/09/06 06:38:20;;;;;;;18.38;13.02;;;20.10;99.90;;;;;;5030534;28;20069;-76
2023/09/06 06:40:50;;;;;;;17.23;13.00;;;20.20;99.90;;;;;;5034196;28;20045;-78
2023/09/06 06:43:18;;;;;;;17.38;12.52;;;20.30;99.90;;;;;;5027352;28;20041;-76
2023/09/06 06:45:48;;;;;;;19.25;13.40;;;20.50;99.90;;;;;;5033409;28;20034;-75
2023/09/06 06:48:21;;;;;;;18.45;13.20;;;20.70;99.90;;;;;;5031158;28;20042;-77
2023/09/06 06:50:50;;;;;;;16.92;13.65;;;21.00;99.90;;;;;;5034799;28;20053;-76
2023/09/06 06:53:19;;;;;;;23.30;14.20;;;21.20;99.90;;;;;;5030248;28;20577;-75
2023/09/06 06:55:46;;;;;;;20.08;15.38;;;21.10;99.90;;;;;;5030367;28;20521;-75
2023/09/06 06:58:17;;;;;;;32.60;22.98;;;21.20;99.90;;;;;;5039975;28;20042;-75
2023/09/06 07:00:44;;;;;;;21.33;13.80;;;21.30;99.90;;;;;;5031266;28;20044;-76
2023/09/06 07:03:16;;;;;;;17.77;13.80;;;21.20;99.90;;;;;;5029490;28;20050;-77
2023/09/06 07:05:44;;;;;;;19.08;13.93;;;21.30;99.90;;;;;;5034324;28;20034;-75
2023/09/06 07:08:13;;;;;;;21.52;14.18;;;21.30;99.90;;;;;;5026584;28;20497;-75
2023/09/06 07:10:45;;;;;;;18.20;14.48;;;21.30;99.90;;;;;;5028346;28;20049;-75
2023/09/06 07:13:13;;;;;;;24.25;14.90;;;21.40;99.90;;;;;;5030910;28;20084;-74
2023/09/06 07:15:40;;;;;;;19.27;14.60;;;21.50;99.90;;;;;;5030789;28;20505;-76
2023/09/06 07:18:09;;;;;;;16.83;13.82;;;21.50;99.90;;;;;;5029604;28;20041;-75
2023/09/06 07:20:39;;;;;;;21.63;14.35;;;21.60;99.90;;;;;;5030049;28;20061;-75
2023/09/06 07:23:07;;;;;;;19.92;14.95;;;21.50;99.90;;;;;;5031150;28;20136;-77
2023/09/06 07:25:35;;;;;;;20.08;14.07;;;21.50;99.90;;;;;;5029111;28;20045;-75
2023/09/06 07:28:04;;;;;;;16.67;14.20;;;21.80;99.90;;;;;;5028180;28;20048;-75
2023/09/06 07:30:33;;;;;;;23.30;16.52;;;22.10;99.90;;;;;;5027691;28;20512;-77
2023/09/06 07:33:00;;;;;;;18.33;13.27;;;22.30;99.90;;;;;;5030006;28;20044;-76
2023/09/06 07:35:28;;;;;;;20.00;15.57;;;22.50;99.90;;;;;;5027187;28;20045;-74
2023/09/06 07:37:55;;;;;;;20.98;13.93;;;22.40;99.90;;;;;;5024830;28;20069;-74
2023/09/06 07:40:23;;;;;;;20.10;14.80;;;22.50;99.90;;;;;;5032063;28;20120;-75
2023/09/06 07:42:51;;;;;;;15.52;12.80;;;22.50;99.90;;;;;;5030985;28;20057;-76
2023/09/06 07:45:21;;;;;;;18.23;14.05;;;22.60;99.90;;;;;;5048657;28;20084;-75
2023/09/06 07:47:49;;;;;;;15.38;13.00;;;22.70;99.90;;;;;;5029142;28;20029;-75
2023/09/06 07:50:18;;;;;;;21.33;12.82;;;22.80;99.90;;;;;;5048987;28;20085;-74
2023/09/06 07:52:49;;;;;;;18.27;12.98;;;22.80;99.90;;;;;;5060696;28;20033;-75
2023/09/06 07:55:17;;;;;;;20.33;13.55;;;22.90;99.90;;;;;;5038770;28;20045;-75
2023/09/06 07:57:46;;;;;;;19.40;13.13;;;23.00;99.90;;;;;;5031476;28;20048;-75
2023/09/06 08:00:15;;;;;;;16.88;12.75;;;23.20;99.90;;;;;;5031593;28;20531;-76
2023/09/06 08:02:45;;;;;;;17.83;12.43;;;23.20;99.90;;;;;;5049921;28;20045;-76
2023/09/06 08:05:12;;;;;;;15.20;11.93;;;23.10;99.90;;;;;;5039580;28;20402;-76
2023/09/06 08:07:41;;;;;;;21.05;15.82;;;23.20;99.90;;;;;;5048315;28;20048;-77
2023/09/06 08:10:13;;;;;;;12.73;10.30;;;23.10;99.90;;;;;;5050698;28;20041;-75
2023/09/06 08:12:42;;;;;;;16.40;11.88;;;23.10;99.90;;;;;;5037163;28;20050;-73
2023/09/06 08:15:12;;;;;;;14.25;11.00;;;23.10;99.90;;;;;;5050900;28;20098;-77
2023/09/06 08:17:41;;;;;;;17.88;11.90;;;23.20;99.90;;;;;;5062186;28;20046;-76
2023/09/06 08:20:14;;;;;;;15.70;9.68;;;23.30;99.90;;;;;;5045287;28;20041;-74
2023/09/06 08:22:42;;;;;;;13.07;10.43;;;23.30;99.90;;;;;;5063299;28;20037;-75
2023/09/06 08:25:10;;;;;;;14.80;10.38;;;23.30;99.90;;;;;;5063524;28;20424;-77
2023/09/06 08:27:37;;;;;;;13.80;10.27;;;23.50;99.90;;;;;;5044123;28;20052;-76
2023/09/06 08:30:07;;;;;;;13.75;10.07;;;23.60;99.90;;;;;;5034773;28;20048;-75
2023/09/06 08:32:34;;;;;;;14.80;10.48;;;23.70;99.90;;;;;;5039782;28;20049;-76
2023/09/06 08:35:02;;;;;;;16.90;10.02;;;23.70;99.90;;;;;;5039800;28;20124;-76
2023/09/06 08:37:31;;;;;;;17.60;10.73;;;23.90;99.90;;;;;;5041257;28;20124;-75
2023/09/06 08:39:58;;;;;;;14.43;10.27;;;23.90;99.90;;;;;;5041615;28;20055;-76
2023/09/06 08:42:33;;;;;;;17.10;11.95;;;23.90;99.90;;;;;;5050090;28;20049;-75
2023/09/06 08:45:01;;;;;;;16.30;11.30;;;24.00;99.90;;;;;;5059344;28;20314;-76
2023/09/06 08:47:29;;;;;;;16.65;10.90;;;24.00;99.90;;;;;;5038581;28;20037;-73
2023/09/06 08:49:58;;;;;;;13.98;11.60;;;24.10;99.90;;;;;;5040959;28;20587;-76
2023/09/06 08:52:26;;;;;;;15.15;12.85;;;24.20;99.90;;;;;;5043941;28;20049;-75
2023/09/06 08:54:56;;;;;;;17.85;13.48;;;24.40;99.90;;;;;;5035884;28;20076;-74
2023/09/06 08:57:27;;;;;;;13.20;11.00;;;24.80;99.90;;;;;;5053483;28;20558;-77
2023/09/06 08:59:56;;;;;;;15.77;11.68;;;24.80;99.90;;;;;;5032987;28;20045;-73
2023/09/06 09:02:23;;;;;;;15.65;11.48;;;25.00;99.90;;;;;;5035818;28;20048;-73
2023/09/06 09:04:53;;;;;;;14.88;10.30;;;25.10;99.90;;;;;;5054065;28;20048;-73
2023/09/06 09:07:21;;;;;;;17.90;11.57;;;25.10;99.90;;;;;;5034869;28;20053;-77
2023/09/06 09:09:57;;;;;;;15.32;11.43;;;25.10;99.90;;;;;;5035156;28;20072;-73
2023/09/06 09:12:26;;;;;;;13.88;10.35;;;25.30;99.90;;;;;;5053594;28;20049;-75
2023/09/06 09:14:56;;;;;;;16.48;10.00;;;25.40;99.90;;;;;;5016900;28;20045;-76
2023/09/06 09:17:25;;;;;;;11.00;7.53;;;25.60;99.90;;;;;;5032553;28;20144;-77
2023/09/06 09:19:56;;;;;;;13.70;7.30;;;25.70;99.90;;;;;;5033153;28;20045;-76
2023/09/06 09:22:24;;;;;;;8.57;6.68;;;25.80;99.90;;;;;;5035272;28;20091;-77
2023/09/06 09:24:57;;;;;;;11.30;6.32;;;25.80;99.90;;;;;;5036200;28;20147;-77
2023/09/06 09:27:28;;;;;;;11.35;7.10;;;25.80;99.90;;;;;;5034814;28;20052;-74
2023/09/06 09:29:56;;;;;;;11.90;7.75;;;25.80;99.90;;;;;;5036558;28;20116;-74
2023/09/06 09:32:25;;;;;;;14.63;7.65;;;25.50;99.90;;;;;;5035514;28;20044;-73
2023/09/06 09:34:53;;;;;;;7.90;6.65;;;25.50;99.90;;;;;;5035974;28;20057;-75
2023/09/06 09:37:21;;;;;;;11.73;7.40;;;25.70;99.90;;;;;;5032726;28;20042;-77
2023/09/06 09:39:48;;;;;;;9.25;7.97;;;25.70;99.90;;;;;;5031185;28;20052;-77
2023/09/06 09:42:16;;;;;;;10.65;7.40;;;26.00;99.90;;;;;;5010360;28;20129;-75
2023/09/06 09:45:00;;;;;;;9.50;7.30;;;26.30;99.90;;;;;;5011850;28;20540;-76
2023/09/06 09:47:30;;;;;;;10.68;7.38;;;26.40;99.90;;;;;;5023166;28;20042;-75
2023/09/06 09:50:00;;;;;;;10.25;7.15;;;26.40;99.90;;;;;;5022685;28;20397;-73
2023/09/06 09:52:32;;;;;;;10.75;6.25;;;26.50;99.90;;;;;;5032525;28;20120;-74
2023/09/06 09:55:03;;;;;;;13.00;8.00;;;26.70;99.90;;;;;;5031828;28;20068;-76
2023/09/06 09:57:31;;;;;;;14.70;6.70;;;26.70;99.90;;;;;;5030164;28;20056;-73
2023/09/06 10:00:01;;;;;;;10.13;6.53;;;26.70;99.90;;;;;;5030497;28;20060;-76
2023/09/06 10:02:29;;;;;;;13.00;7.93;;;27.00;99.90;;;;;;5022808;28;20038;-74
2023/09/06 10:04:58;;;;;;;11.52;7.07;;;27.40;99.90;;;;;;5031438;28;20517;-78
2023/09/06 10:07:26;;;;;;;9.23;6.85;;;27.80;99.90;;;;;;5020662;28;20042;-76
2023/09/06 10:09:54;;;;;;;10.40;6.72;;;28.10;99.90;;;;;;5030778;28;20076;-76
2023/09/06 10:12:23;;;;;;;9.15;6.70;;;28.40;99.90;;;;;;5030252;28;20042;-76
2023/09/06 10:14:52;;;;;;;8.95;6.75;;;28.50;99.90;;;;;;5030676;28;20128;-76
2023/09/06 10:17:23;;;;;;;7.63;5.40;;;28.70;99.90;;;;;;5029271;28;20050;-79
2023/09/06 10:19:51;;;;;;;6.43;4.80;;;28.70;99.90;;;;;;5046186;28;20126;-76
2023/09/06 10:22:21;;;;;;;6.45;4.85;;;28.50;99.90;;;;;;5029080;28;20049;-80
2023/09/06 10:24:54;;;;;;;6.68;5.32;;;28.10;99.90;;;;;;5030051;28;20528;-78
2023/09/06 10:27:32;;;;;;;8.02;5.43;;;28.30;99.90;;;;;;5031139;28;20060;-76
2023/09/06 10:29:59;;;;;;;8.50;5.28;;;28.10;99.90;;;;;;5032839;28;20046;-76
2023/09/06 10:32:41;;;;;;;7.03;4.85;;;28.10;99.90;;;;;;5035751;28;20042;-77
2023/09/06 10:35:24;;;;;;;5.82;4.78;;;28.10;99.90;;;;;;5044047;28;20042;-76
2023/09/06 10:38:06;;;;;;;5.68;4.30;;;27.40;99.90;;;;;;5023568;28;20271;-74
2023/09/06 10:41:10;;;;;;;5.43;4.65;;;27.40;99.90;;;;;;5028341;28;20042;-77
2023/09/06 10:43:54;;;;;;;8.65;4.88;;;27.50;99.90;;;;;;4960821;28;20550;-78
2023/09/06 10:46:26;;;;;;;5.97;4.70;;;27.40;99.90;;;;;;4963768;28;20114;-76
2023/09/06 10:49:21;;;;;;;10.07;7.03;;;27.50;99.90;;;;;;4991012;28;20082;-76
2023/09/06 10:52:04;;;;;;;6.35;4.40;;;27.60;99.90;;;;;;4972163;28;20039;-75
2023/09/06 10:54:37;;;;;;;6.70;5.40;;;27.40;99.90;;;;;;4972578;28;20180;-76
2023/09/06 10:57:07;;;;;;;8.10;4.80;;;27.40;99.90;;;;;;4968474;28;20126;-75
2023/09/06 10:59:38;;;;;;;9.65;6.45;;;27.60;99.90;;;;;;4973848;28;20047;-75
2023/09/06 11:02:11;;;;;;;5.60;5.00;;;27.50;99.90;;;;;;4962679;28;20472;-78
2023/09/06 11:04:40;;;;;;;7.50;4.70;;;27.70;99.90;;;;;;4962183;28;20050;-77
2023/09/06 11:07:10;;;;;;;8.18;4.65;;;27.70;99.90;;;;;;4963056;28;20110;-75
2023/09/06 11:09:50;;;;;;;7.53;4.38;;;27.50;99.90;;;;;;4978274;28;20074;-76
2023/09/06 11:12:18;;;;;;;5.13;4.40;;;27.30;99.90;;;;;;4987824;28;20072;-76
2023/09/06 11:14:54;;;;;;;8.88;5.00;;;27.30;99.90;;;;;;5002214;28;20217;-75
2023/09/06 11:17:22;;;;;;;6.05;4.90;;;27.50;99.90;;;;;;5045522;28;20045;-76
2023/09/06 11:19:51;;;;;;;8.23;5.28;;;27.40;99.90;;;;;;5023905;28;20037;-79
2023/09/06 11:22:20;;;;;;;5.82;4.70;;;27.60;99.90;;;;;;5028376;28;20099;-74
2023/09/06 11:24:48;;;;;;;6.38;4.25;;;27.70;99.90;;;;;;5027264;28;20075;-77
2023/09/06 11:27:17;;;;;;;7.75;4.65;;;27.50;99.90;;;;;;5008079;28;20049;-79
2023/09/06 11:29:45;;;;;;;5.32;4.70;;;27.30;99.90;;;;;;5006589;28;20379;-77
2023/09/06 11:32:13;;;;;;;5.68;4.63;;;27.10;99.90;;;;;;5019061;28;20046;-74
2023/09/06 11:34:45;;;;;;;5.07;4.35;;;26.80;99.90;;;;;;5027565;28;20136;-76
2023/09/06 11:37:17;;;;;;;6.47;4.63;;;26.80;99.90;;;;;;5027822;28;20090;-76
2023/09/06 11:39:45;;;;;;;8.50;5.65;;;26.80;99.90;;;;;;5027946;28;20053;-76
2023/09/06 11:42:15;;;;;;;9.73;4.93;;;27.00;99.90;;;;;;5027115;28;20091;-76
2023/09/06 11:44:47;;;;;;;6.30;4.50;;;27.00;99.90;;;;;;5036984;28;20068;-73
2023/09/06 11:47:17;;;;;;;6.63;5.07;;;26.80;99.90;;;;;;5051165;28;20152;-76
2023/09/06 11:49:46;;;;;;;7.72;5.72;;;26.90;99.90;;;;;;5048799;28;20064;-78
2023/09/06 11:52:23;;;;;;;6.00;4.68;;;26.90;99.90;;;;;;5030497;28;20041;-78
2023/09/06 11:54:52;;;;;;;8.38;5.20;;;27.00;99.90;;;;;;5029077;28;20057;-79
2023/09/06 11:57:23;;;;;;;6.18;4.90;;;27.10;99.90;;;;;;5050941;28;20540;-75
2023/09/06 11:59:53;;;;;;;6.63;4.90;;;27.10;99.90;;;;;;5033738;28;20045;-73
2023/09/06 12:02:22;;;;;;;4.90;4.40;;;27.10;99.90;;;;;;5030506;28;20030;-77
2023/09/06 12:04:54;;;;;;;7.80;5.72;;;26.90;99.90;;;;;;5028154;28;20496;-74
2023/09/06 12:07:24;;;;;;;7.95;6.47;;;27.00;99.90;;;;;;5029710;28;20045;-76
2023/09/06 12:09:54;;;;;;;6.20;5.05;;;27.10;99.90;;;;;;5032233;28;20133;-74
2023/09/06 12:12:22;;;;;;;9.48;6.32;;;27.30;99.90;;;;;;5032883;28;20059;-73
2023/09/06 12:14:50;;;;;;;8.20;5.22;;;27.00;99.90;;;;;;5034030;28;20048;-74
2023/09/06 12:17:19;;;;;;;5.95;4.80;;;27.00;99.90;;;;;;5034435;28;20049;-77
2023/09/06 12:19:46;;;;;;;5.78;4.95;;;26.90;99.90;;;;;;5034468;28;20620;-79
2023/09/06 12:22:17;;;;;;;6.18;4.97;;;26.70;99.90;;;;;;5028988;28;20107;-77
2023/09/06 12:24:48;;;;;;;8.05;5.45;;;26.60;99.90;;;;;;5032713;28;20045;-77
2023/09/06 12:27:18;;;;;;;5.45;4.82;;;26.70;99.90;;;;;;5032803;28;20034;-75
2023/09/06 12:29:46;;;;;;;6.20;5.15;;;26.70;99.90;;;;;;5033952;28;20045;-76
2023/09/06 12:32:13;;;;;;;5.45;4.78;;;26.60;99.90;;;;;;5039232;28;20532;-74
2023/09/06 12:34:42;;;;;;;5.93;4.90;;;26.50;99.90;;;;;;5042281;28;20049;-75
2023/09/06 12:37:09;;;;;;;6.50;4.85;;;26.50;99.90;;;;;;5049107;28;20041;-75
2023/09/06 12:52:13;;;;;;;7.82;5.95;;;27.90;99.90;;;;;;3596933;23;20461;-75
2023/09/06 12:54:42;;;;;;;7.18;5.97;;;27.50;99.90;;;;;;4976256;28;20065;-74
2023/09/06 12:57:17;;;;;;;8.52;6.57;;;27.00;99.90;;;;;;4977672;28;20043;-75
2023/09/06 12:59:46;;;;;;;8.48;6.07;;;26.70;99.90;;;;;;4994721;28;20046;-78